createdAt,value
2019-06-08T00:00:59.351Z,2.80
2019-06-08T00:01:59.368Z,2.80
2019-06-08T00:02:59.380Z,3.00
2019-06-08T00:03:59.392Z,3.10
2019-06-08T00:04:59.413Z,3.10
2019-06-08T00:05:59.427Z,2.70
2019-06-08T00:06:59.431Z,3.10
2019-06-08T00:07:59.449Z,3.10
2019-06-08T00:08:59.461Z,2.70
2019-06-08T00:09:59.475Z,2.90
2019-06-08T00:10:59.490Z,2.80
2019-06-08T00:11:59.501Z,2.80
2019-06-08T00:12:59.515Z,3.00
2019-06-08T00:13:59.525Z,3.00
2019-06-08T00:14:59.541Z,2.90
2019-06-08T00:15:59.551Z,3.70
2019-06-08T00:16:59.564Z,2.70
2019-06-08T00:17:59.582Z,3.10
2019-06-08T00:18:59.596Z,3.10
2019-06-08T00:19:59.607Z,2.90
2019-06-08T00:20:59.616Z,3.20
2019-06-08T00:21:59.629Z,3.00
2019-06-08T00:22:59.647Z,3.20
2019-06-08T00:23:59.661Z,3.20
2019-06-08T00:24:59.675Z,3.70
2019-06-08T00:25:59.686Z,2.70
2019-06-08T00:26:59.700Z,2.20
2019-06-08T00:27:59.719Z,2.30
2019-06-08T00:28:59.727Z,3.20
2019-06-08T00:29:59.735Z,2.70
2019-06-08T00:30:59.748Z,2.70
2019-06-08T00:31:59.765Z,2.80
2019-06-08T00:32:59.775Z,2.70
2019-06-08T00:33:59.787Z,2.90
2019-06-08T00:34:59.803Z,2.70
2019-06-08T00:35:59.811Z,2.40
2019-06-08T00:36:59.829Z,3.20
2019-06-08T00:37:59.889Z,2.80
2019-06-08T00:38:59.853Z,2.30
2019-06-08T00:39:59.863Z,2.50
2019-06-08T00:40:59.879Z,2.60
2019-06-08T00:41:59.891Z,2.60
2019-06-08T00:42:59.907Z,2.20
2019-06-08T00:43:59.971Z,2.40
2019-06-08T00:44:59.928Z,2.30
2019-06-08T00:45:59.954Z,2.50
2019-06-08T00:46:59.956Z,2.10
2019-06-08T00:47:59.969Z,2.40
2019-06-08T00:48:59.982Z,1.90
2019-06-08T00:49:59.996Z,2.40
2019-06-08T00:51:00.006Z,1.80
2019-06-08T00:52:00.017Z,2.10
2019-06-08T00:53:00.039Z,1.90
2019-06-08T00:54:00.046Z,1.90
2019-06-08T00:55:00.067Z,1.80
2019-06-08T00:56:00.071Z,2.20
2019-06-08T00:57:00.087Z,1.70
2019-06-08T00:58:00.097Z,1.80
2019-06-08T00:59:00.112Z,1.90
2019-06-08T01:00:00.125Z,1.80
2019-06-08T01:01:00.135Z,1.70
2019-06-08T01:02:00.159Z,1.80
2019-06-08T01:03:00.158Z,1.90
2019-06-08T01:04:00.169Z,1.80
2019-06-08T01:05:00.186Z,1.60
2019-06-08T01:06:00.202Z,1.50
2019-06-08T01:07:00.212Z,2.00
2019-06-08T01:08:00.220Z,2.20
2019-06-08T01:09:00.235Z,1.80
2019-06-08T01:10:00.250Z,1.70
2019-06-08T01:11:00.260Z,1.90
2019-06-08T01:12:00.272Z,1.60
2019-06-08T01:13:00.289Z,1.70
2019-06-08T01:14:00.295Z,1.60
2019-06-08T01:15:00.338Z,1.50
2019-06-08T01:16:00.324Z,1.50
2019-06-08T01:17:00.337Z,1.40
2019-06-08T01:18:03.929Z,1.40
2019-06-08T01:19:00.362Z,1.70
2019-06-08T01:20:00.373Z,1.80
2019-06-08T01:21:00.404Z,1.30
2019-06-08T01:22:00.399Z,1.50
2019-06-08T01:23:00.421Z,1.60
2019-06-08T01:24:00.425Z,1.40
2019-06-08T01:25:00.432Z,1.90
2019-06-08T01:26:00.449Z,1.70
2019-06-08T01:27:00.461Z,1.70
2019-06-08T01:28:00.471Z,1.60
2019-06-08T01:29:00.485Z,1.40
2019-06-08T01:30:00.504Z,1.40
2019-06-08T01:31:00.506Z,1.80
2019-06-08T01:32:00.519Z,1.70
2019-06-08T01:33:00.539Z,2.00
2019-06-08T01:34:00.551Z,2.00
2019-06-08T01:35:00.556Z,1.90
2019-06-08T01:36:00.585Z,1.50
2019-06-08T01:37:00.583Z,1.80
2019-06-08T01:38:00.599Z,1.80
2019-06-08T01:39:00.605Z,1.70
2019-06-08T01:40:00.618Z,1.70
2019-06-08T01:41:00.632Z,1.70
2019-06-08T01:42:00.645Z,1.80
2019-06-08T01:43:00.653Z,1.90
2019-06-08T01:44:00.665Z,1.90
2019-06-08T01:45:00.679Z,1.70
2019-06-08T01:46:00.690Z,1.60
2019-06-08T01:47:00.702Z,1.60
2019-06-08T01:48:00.718Z,1.40
2019-06-08T01:49:00.732Z,1.50
2019-06-08T01:50:00.738Z,1.60
2019-06-08T01:51:00.754Z,1.60
2019-06-08T01:52:00.761Z,1.60
2019-06-08T01:53:00.779Z,1.30
2019-06-08T01:54:00.792Z,1.30
2019-06-08T01:55:00.801Z,1.60
2019-06-08T01:56:00.812Z,1.20
2019-06-08T01:57:00.826Z,1.40
2019-06-08T01:58:00.835Z,1.30
2019-06-08T01:59:00.848Z,1.40
2019-06-08T02:00:28.686Z,1.30
2019-06-08T02:01:00.870Z,1.40
2019-06-08T02:02:00.892Z,1.30
2019-06-08T02:03:00.898Z,1.30
2019-06-08T02:04:00.906Z,1.30
2019-06-08T02:05:00.919Z,1.70
2019-06-08T02:06:00.932Z,1.00
2019-06-08T02:07:00.943Z,1.30
2019-06-08T02:08:00.954Z,1.10
2019-06-08T02:09:00.968Z,1.30
2019-06-08T02:10:00.982Z,1.10
2019-06-08T02:11:00.990Z,1.30
2019-06-08T02:12:01.004Z,1.30
2019-06-08T02:13:01.028Z,1.20
2019-06-08T02:14:01.027Z,1.00
2019-06-08T02:15:01.050Z,1.20
2019-06-08T02:16:01.055Z,1.20
2019-06-08T02:17:01.066Z,0.80
2019-06-08T02:18:01.076Z,1.20
2019-06-08T02:19:01.089Z,1.00
2019-06-08T02:20:01.095Z,1.10
2019-06-08T02:21:01.110Z,1.00
2019-06-08T02:22:01.117Z,0.90
2019-06-08T02:23:01.141Z,0.90
2019-06-08T02:24:01.140Z,0.90
2019-06-08T02:25:01.153Z,1.00
2019-06-08T02:26:01.164Z,0.90
2019-06-08T02:27:01.176Z,0.90
2019-06-08T02:28:01.189Z,0.90
2019-06-08T02:29:01.288Z,0.90
2019-06-08T02:30:01.215Z,0.80
2019-06-08T02:31:01.223Z,0.80
2019-06-08T02:32:01.234Z,0.90
2019-06-08T02:33:01.249Z,0.80
2019-06-08T02:34:01.264Z,0.80
2019-06-08T02:35:01.271Z,0.80
2019-06-08T02:36:01.277Z,0.80
2019-06-08T02:37:01.290Z,0.90
2019-06-08T02:38:01.308Z,0.80
2019-06-08T02:39:01.313Z,0.90
2019-06-08T02:40:01.324Z,0.80
2019-06-08T02:41:01.340Z,0.90
2019-06-08T02:42:01.351Z,0.90
2019-06-08T02:43:01.371Z,0.80
2019-06-08T02:44:01.368Z,0.80
2019-06-08T02:45:01.381Z,0.70
2019-06-08T02:46:01.414Z,0.70
2019-06-08T02:47:01.414Z,0.70
2019-06-08T02:48:01.426Z,0.90
2019-06-08T02:49:04.472Z,0.80
2019-06-08T02:50:01.455Z,0.80
2019-06-08T02:51:01.445Z,0.90
2019-06-08T02:52:01.461Z,0.90
2019-06-08T02:53:01.470Z,0.80
2019-06-08T02:54:01.483Z,0.90
2019-06-08T02:55:01.504Z,0.80
2019-06-08T02:56:01.501Z,0.80
2019-06-08T02:57:01.517Z,0.80
2019-06-08T02:58:01.527Z,0.90
2019-06-08T02:59:01.539Z,0.80
2019-06-08T03:00:01.550Z,0.90
2019-06-08T03:01:01.590Z,0.70
2019-06-08T03:02:01.586Z,0.90
2019-06-08T03:03:01.584Z,0.90
2019-06-08T03:04:01.593Z,0.80
2019-06-08T03:05:01.610Z,0.90
2019-06-08T03:06:01.626Z,0.90
2019-06-08T03:07:01.630Z,1.00
2019-06-08T03:08:01.659Z,0.90
2019-06-08T03:09:01.661Z,0.90
2019-06-08T03:10:01.669Z,0.80
2019-06-08T03:11:01.677Z,0.90
2019-06-08T03:12:01.686Z,0.80
2019-06-08T03:13:01.697Z,0.80
2019-06-08T03:14:01.711Z,0.90
2019-06-08T03:15:01.740Z,0.80
2019-06-08T03:16:01.744Z,0.70
2019-06-08T03:17:01.746Z,0.70
2019-06-08T03:18:01.757Z,0.70
2019-06-08T03:19:19.902Z,0.80
2019-06-08T03:20:01.784Z,0.70
2019-06-08T03:21:01.794Z,0.70
2019-06-08T03:22:01.806Z,0.80
2019-06-08T03:23:01.813Z,0.70
2019-06-08T03:24:01.829Z,0.70
2019-06-08T03:25:01.838Z,0.70
2019-06-08T03:26:01.859Z,0.80
2019-06-08T03:27:01.858Z,0.70
2019-06-08T03:28:01.870Z,0.80
2019-06-08T03:29:01.884Z,0.70
2019-06-08T03:30:15.145Z,0.80
2019-06-08T03:31:01.917Z,0.70
2019-06-08T03:32:01.922Z,0.70
2019-06-08T03:33:01.979Z,0.80
2019-06-08T03:34:01.951Z,0.70
2019-06-08T03:35:01.982Z,0.90
2019-06-08T03:36:01.960Z,0.80
2019-06-08T03:37:01.972Z,0.80
2019-06-08T03:38:01.984Z,0.80
2019-06-08T03:39:01.994Z,0.80
2019-06-08T03:40:02.009Z,0.80
2019-06-08T03:41:02.014Z,0.80
2019-06-08T03:42:02.029Z,0.80
2019-06-08T03:43:02.070Z,0.80
2019-06-08T03:44:02.051Z,0.70
2019-06-08T03:45:02.059Z,0.80
2019-06-08T03:46:02.072Z,0.80
2019-06-08T03:47:02.080Z,0.80
2019-06-08T03:48:02.102Z,1.00
2019-06-08T03:49:02.109Z,0.80
2019-06-08T03:50:02.157Z,0.80
2019-06-08T03:51:02.124Z,0.80
2019-06-08T03:52:02.137Z,0.90
2019-06-08T03:53:02.152Z,0.80
2019-06-08T03:54:02.159Z,0.80
2019-06-08T03:55:02.183Z,0.80
2019-06-08T03:56:02.180Z,0.70
2019-06-08T03:57:02.204Z,0.80
2019-06-08T03:58:02.236Z,0.70
2019-06-08T03:59:02.216Z,0.70
2019-06-08T04:00:02.223Z,0.80
2019-06-08T04:01:02.244Z,0.90
2019-06-08T04:02:02.252Z,0.70
2019-06-08T04:03:02.260Z,0.90
2019-06-08T04:04:02.266Z,0.90
2019-06-08T04:05:02.283Z,0.90
2019-06-08T04:06:02.295Z,0.80
2019-06-08T04:07:02.301Z,0.80
2019-06-08T04:08:02.310Z,0.70
2019-06-08T04:09:02.327Z,0.80
2019-06-08T04:10:02.345Z,0.90
2019-06-08T04:11:02.348Z,0.80
2019-06-08T04:12:02.385Z,0.90
2019-06-08T04:13:02.369Z,0.80
2019-06-08T04:14:02.384Z,0.70
2019-06-08T04:15:02.390Z,0.90
2019-06-08T04:16:02.404Z,0.80
2019-06-08T04:17:02.413Z,0.90
2019-06-08T04:18:02.439Z,0.90
2019-06-08T04:19:02.434Z,0.90
2019-06-08T04:20:11.100Z,0.90
2019-06-08T04:21:02.463Z,0.80
2019-06-08T04:22:02.470Z,0.80
2019-06-08T04:23:02.495Z,0.90
2019-06-08T04:24:02.493Z,0.90
2019-06-08T04:25:02.498Z,0.80
2019-06-08T04:26:02.514Z,0.90
2019-06-08T04:27:02.523Z,0.90
2019-06-08T04:28:02.530Z,0.90
2019-06-08T04:29:02.543Z,0.80
2019-06-08T04:30:02.552Z,0.90
2019-06-08T04:31:02.571Z,0.80
2019-06-08T04:32:02.575Z,0.80
2019-06-08T04:33:02.590Z,0.70
2019-06-08T04:34:02.621Z,1.00
2019-06-08T04:35:02.610Z,0.80
2019-06-08T04:36:02.658Z,0.90
2019-06-08T04:37:02.634Z,0.80
2019-06-08T04:38:02.648Z,0.80
2019-06-08T04:39:02.664Z,0.80
2019-06-08T04:40:02.665Z,0.80
2019-06-08T04:41:02.676Z,0.90
2019-06-08T04:42:02.716Z,0.90
2019-06-08T04:43:02.704Z,0.80
2019-06-08T04:44:02.712Z,0.90
2019-06-08T04:45:02.721Z,0.90
2019-06-08T04:46:02.762Z,0.90
2019-06-08T04:47:02.770Z,0.80
2019-06-08T04:48:02.778Z,0.80
2019-06-08T04:49:02.771Z,0.90
2019-06-08T04:50:21.067Z,0.90
2019-06-08T04:51:02.792Z,0.70
2019-06-08T04:52:02.803Z,0.80
2019-06-08T04:53:02.814Z,0.80
2019-06-08T04:54:02.821Z,1.00
2019-06-08T04:55:02.842Z,0.80
2019-06-08T04:56:02.849Z,0.80
2019-06-08T04:57:02.880Z,1.00
2019-06-08T04:58:02.870Z,0.90
2019-06-08T04:59:02.882Z,0.90
2019-06-08T05:00:11.966Z,0.90
2019-06-08T05:01:02.901Z,1.30
2019-06-08T05:02:02.913Z,1.20
2019-06-08T05:03:02.938Z,0.80
2019-06-08T05:04:02.937Z,1.00
2019-06-08T05:05:02.989Z,3.30
2019-06-08T05:06:02.964Z,1.10
2019-06-08T05:07:02.988Z,1.20
2019-06-08T05:08:02.995Z,0.90
2019-06-08T05:09:03.012Z,1.00
2019-06-08T05:10:03.010Z,1.40
2019-06-08T05:11:03.019Z,1.00
2019-06-08T05:12:03.032Z,0.90
2019-06-08T05:13:03.065Z,0.70
2019-06-08T05:14:03.049Z,0.90
2019-06-08T05:15:03.073Z,1.30
2019-06-08T05:16:03.173Z,1.00
2019-06-08T05:17:03.102Z,0.80
2019-06-08T05:18:03.098Z,0.80
2019-06-08T05:19:03.109Z,0.80
2019-06-08T05:20:03.168Z,1.00
2019-06-08T05:21:03.134Z,1.80
2019-06-08T05:22:03.143Z,1.10
2019-06-08T05:23:03.153Z,1.00
2019-06-08T05:24:03.173Z,1.20
2019-06-08T05:25:03.178Z,1.30
2019-06-08T05:26:03.194Z,1.00
2019-06-08T05:27:03.207Z,1.20
2019-06-08T05:28:03.212Z,1.00
2019-06-08T05:29:03.226Z,0.90
2019-06-08T05:30:08.512Z,1.30
2019-06-08T05:31:03.251Z,6.00
2019-06-08T05:32:03.259Z,3.00
2019-06-08T05:33:03.280Z,1.20
2019-06-08T05:34:03.282Z,1.10
2019-06-08T05:35:03.294Z,0.90
2019-06-08T05:36:03.309Z,0.90
2019-06-08T05:37:03.323Z,1.00
2019-06-08T05:38:03.329Z,1.00
2019-06-08T05:39:03.398Z,0.90
2019-06-08T05:40:03.354Z,1.00
2019-06-08T05:41:03.365Z,1.00
2019-06-08T05:42:03.384Z,0.90
2019-06-08T05:43:03.398Z,0.80
2019-06-08T05:44:03.400Z,1.00
2019-06-08T05:45:03.416Z,0.80
2019-06-08T05:46:03.427Z,1.00
2019-06-08T05:47:03.447Z,0.90
2019-06-08T05:48:03.531Z,0.80
2019-06-08T05:49:03.470Z,0.90
2019-06-08T05:50:03.546Z,0.90
2019-06-08T05:51:04.396Z,0.90
2019-06-08T05:52:03.500Z,0.80
2019-06-08T05:53:03.513Z,1.10
2019-06-08T05:54:03.522Z,1.10
2019-06-08T05:55:03.531Z,1.00
2019-06-08T05:56:03.545Z,1.00
2019-06-08T05:57:03.558Z,0.90
2019-06-08T05:58:03.572Z,0.90
2019-06-08T05:59:03.584Z,0.70
2019-06-08T06:00:08.851Z,0.90
2019-06-08T06:01:03.608Z,1.10
2019-06-08T06:02:03.615Z,0.80
2019-06-08T06:03:03.637Z,0.80
2019-06-08T06:04:03.641Z,1.00
2019-06-08T06:05:03.656Z,0.80
2019-06-08T06:06:03.664Z,1.10
2019-06-08T06:07:03.693Z,1.50
2019-06-08T06:08:17.589Z,1.10
2019-06-08T06:09:03.696Z,1.00
2019-06-08T06:10:03.715Z,1.00
2019-06-08T06:11:03.721Z,0.90
2019-06-08T06:12:03.733Z,1.00
2019-06-08T06:13:03.748Z,0.90
2019-06-08T06:14:03.756Z,0.80
2019-06-08T06:15:03.770Z,1.00
2019-06-08T06:16:03.782Z,0.80
2019-06-08T06:17:03.796Z,0.80
2019-06-08T06:18:03.873Z,0.90
2019-06-08T06:19:03.818Z,0.80
2019-06-08T06:20:03.828Z,0.80
2019-06-08T06:21:10.901Z,0.70
2019-06-08T06:22:03.910Z,0.90
2019-06-08T06:23:03.864Z,1.00
2019-06-08T06:24:03.871Z,0.90
2019-06-08T06:25:03.888Z,0.80
2019-06-08T06:26:03.900Z,1.10
2019-06-08T06:27:03.910Z,1.10
2019-06-08T06:28:06.271Z,0.90
2019-06-08T06:29:03.932Z,0.90
2019-06-08T06:30:03.947Z,1.00
2019-06-08T06:31:03.958Z,1.00
2019-06-08T06:32:03.968Z,0.80
2019-06-08T06:33:04.057Z,0.90
2019-06-08T06:34:03.988Z,0.80
2019-06-08T06:35:04.073Z,1.20
2019-06-08T06:36:04.012Z,1.00
2019-06-08T06:37:04.028Z,0.90
2019-06-08T06:38:04.048Z,0.90
2019-06-08T06:39:04.050Z,0.90
2019-06-08T06:40:04.058Z,0.90
2019-06-08T06:41:04.105Z,0.80
2019-06-08T06:42:04.089Z,0.90
2019-06-08T06:43:04.171Z,1.10
2019-06-08T06:44:04.106Z,1.00
2019-06-08T06:45:04.143Z,1.00
2019-06-08T06:46:04.134Z,0.90
2019-06-08T06:47:04.145Z,0.90
2019-06-08T06:48:04.165Z,0.90
2019-06-08T06:49:04.246Z,0.90
2019-06-08T06:50:04.186Z,0.90
2019-06-08T06:51:04.191Z,1.00
2019-06-08T06:52:04.245Z,0.90
2019-06-08T06:53:04.215Z,0.90
2019-06-08T06:54:04.235Z,1.00
2019-06-08T06:55:04.241Z,0.80
2019-06-08T06:56:04.250Z,0.80
2019-06-08T06:57:04.273Z,0.90
2019-06-08T06:58:04.283Z,0.80
2019-06-08T06:59:04.287Z,0.90
2019-06-08T07:00:04.308Z,1.00
2019-06-08T07:01:04.318Z,1.00
2019-06-08T07:02:04.322Z,0.90
2019-06-08T07:03:04.337Z,0.90
2019-06-08T07:04:04.346Z,0.80
2019-06-08T07:05:04.358Z,1.00
2019-06-08T07:06:04.499Z,1.00
2019-06-08T07:07:04.435Z,1.20
2019-06-08T07:08:04.397Z,1.00
2019-06-08T07:09:04.406Z,0.90
2019-06-08T07:10:04.424Z,1.00
2019-06-08T07:11:04.432Z,1.00
2019-06-08T07:12:04.445Z,1.20
2019-06-08T07:13:04.519Z,1.00
2019-06-08T07:14:04.468Z,1.00
2019-06-08T07:15:04.481Z,1.00
2019-06-08T07:16:17.937Z,0.90
2019-06-08T07:17:04.514Z,1.00
2019-06-08T07:18:04.518Z,0.90
2019-06-08T07:19:04.540Z,0.90
2019-06-08T07:20:04.545Z,0.80
2019-06-08T07:21:04.560Z,1.10
2019-06-08T07:22:04.571Z,0.80
2019-06-08T07:23:04.580Z,0.90
2019-06-08T07:24:04.598Z,1.10
2019-06-08T07:25:04.609Z,1.40
2019-06-08T07:26:04.621Z,1.10
2019-06-08T07:27:07.455Z,0.90
2019-06-08T07:28:04.644Z,0.90
2019-06-08T07:29:04.660Z,0.80
2019-06-08T07:31:04.680Z,0.90
2019-06-08T07:32:04.773Z,0.90
2019-06-08T07:33:04.702Z,0.80
2019-06-08T07:34:04.716Z,0.90
2019-06-08T07:35:04.738Z,1.00
2019-06-08T07:36:04.744Z,0.90
2019-06-08T07:37:04.757Z,1.00
2019-06-08T07:38:04.784Z,0.90
2019-06-08T07:39:04.778Z,0.90
2019-06-08T07:40:04.796Z,1.00
2019-06-08T07:41:04.806Z,1.10
2019-06-08T07:42:04.820Z,1.00
2019-06-08T07:43:04.828Z,1.10
2019-06-08T07:44:04.840Z,1.00
2019-06-08T07:45:04.858Z,1.00
2019-06-08T07:46:04.866Z,1.10
2019-06-08T07:47:04.882Z,1.10
2019-06-08T07:48:04.898Z,1.00
2019-06-08T07:49:04.908Z,1.00
2019-06-08T07:50:04.993Z,1.00
2019-06-08T07:51:04.929Z,1.00
2019-06-08T07:52:10.239Z,0.90
2019-06-08T07:53:04.956Z,0.90
2019-06-08T07:54:04.969Z,1.20
2019-06-08T07:55:04.987Z,1.00
2019-06-08T07:56:04.997Z,0.90
2019-06-08T07:57:05.004Z,1.10
2019-06-08T07:58:05.024Z,0.90
2019-06-08T07:59:05.040Z,1.10
2019-06-08T08:00:09.535Z,1.10
2019-06-08T08:01:08.091Z,1.10
2019-06-08T08:02:05.073Z,1.10
2019-06-08T08:03:05.082Z,1.30
2019-06-08T08:04:05.094Z,1.10
2019-06-08T08:05:05.106Z,1.20
2019-06-08T08:06:05.125Z,0.90
2019-06-08T08:07:05.137Z,1.20
2019-06-08T08:08:05.145Z,1.10
2019-06-08T08:09:05.160Z,0.90
2019-06-08T08:10:05.245Z,1.00
2019-06-08T08:11:05.194Z,0.90
2019-06-08T08:12:05.198Z,1.10
2019-06-08T08:13:05.208Z,1.00
2019-06-08T08:14:05.223Z,1.10
2019-06-08T08:15:05.236Z,1.10
2019-06-08T08:16:05.248Z,1.00
2019-06-08T08:17:05.262Z,1.00
2019-06-08T08:18:05.278Z,1.00
2019-06-08T08:19:05.287Z,1.30
2019-06-08T08:20:05.315Z,1.10
2019-06-08T08:21:15.839Z,1.00
2019-06-08T08:22:19.599Z,1.00
2019-06-08T08:23:06.759Z,1.10
2019-06-08T08:24:07.304Z,0.90
2019-06-08T08:25:08.031Z,1.10
2019-06-08T08:26:05.385Z,1.10
2019-06-08T08:27:08.176Z,1.10
2019-06-08T08:28:05.412Z,1.00
2019-06-08T08:29:05.424Z,1.10
2019-06-08T08:30:05.443Z,0.90
2019-06-08T08:31:07.781Z,1.10
2019-06-08T08:32:07.822Z,1.10
2019-06-08T08:33:07.802Z,1.00
2019-06-08T08:34:06.749Z,1.30
2019-06-08T08:35:05.499Z,1.20
2019-06-08T08:36:07.251Z,1.20
2019-06-08T08:37:08.972Z,1.20
2019-06-08T08:38:07.550Z,1.00
2019-06-08T08:39:08.188Z,1.20
2019-06-08T08:40:07.704Z,1.00
2019-06-08T08:41:08.272Z,1.00
2019-06-08T08:42:05.665Z,1.10
2019-06-08T08:43:05.608Z,1.10
2019-06-08T08:44:07.825Z,1.10
2019-06-08T08:45:08.633Z,1.10
2019-06-08T08:46:07.692Z,1.40
2019-06-08T08:47:07.619Z,1.10
2019-06-08T08:48:21.185Z,0.90
2019-06-08T08:49:12.087Z,1.00
2019-06-08T08:50:07.394Z,1.10
2019-06-08T08:51:08.374Z,1.10
2019-06-08T08:52:05.727Z,1.30
2019-06-08T08:53:05.742Z,1.10
2019-06-08T08:54:08.439Z,1.00
2019-06-08T08:55:08.093Z,1.10
2019-06-08T08:56:07.379Z,1.10
2019-06-08T08:57:08.327Z,1.10
2019-06-08T08:58:08.199Z,1.20
2019-06-08T08:59:07.849Z,1.10
2019-06-08T09:00:08.355Z,1.10
2019-06-08T09:01:08.086Z,1.20
2019-06-08T09:02:10.992Z,1.10
2019-06-08T09:03:24.323Z,1.20
2019-06-08T09:04:08.593Z,1.10
2019-06-08T09:05:08.334Z,1.00
2019-06-08T09:06:08.226Z,1.20
2019-06-08T09:07:09.478Z,1.10
2019-06-08T09:08:08.633Z,1.30
2019-06-08T09:09:08.657Z,1.20
2019-06-08T09:10:10.797Z,1.10
2019-06-08T09:11:08.118Z,1.00
2019-06-08T09:12:08.091Z,1.10
2019-06-08T09:13:11.724Z,1.10
2019-06-08T09:14:12.560Z,1.00
2019-06-08T09:15:08.305Z,1.10
2019-06-08T09:16:07.991Z,1.10
2019-06-08T09:17:08.560Z,1.00
2019-06-08T09:18:08.091Z,1.10
2019-06-08T09:19:08.326Z,1.30
2019-06-08T09:20:11.100Z,1.20
2019-06-08T09:21:08.148Z,1.00
2019-06-08T09:22:08.343Z,1.00
2019-06-08T09:23:14.686Z,1.10
2019-06-08T09:24:07.631Z,1.30
2019-06-08T09:25:08.644Z,1.30
2019-06-08T09:26:11.882Z,1.20
2019-06-08T09:27:08.038Z,1.20
2019-06-08T09:28:08.295Z,1.10
2019-06-08T09:29:10.642Z,1.10
2019-06-08T09:30:08.331Z,1.10
2019-06-08T09:31:08.383Z,1.10
2019-06-08T09:32:08.208Z,1.10
2019-06-08T09:33:08.005Z,1.00
2019-06-08T09:34:14.085Z,1.30
2019-06-08T09:35:09.114Z,1.10
2019-06-08T09:36:08.008Z,1.10
2019-06-08T09:37:08.049Z,1.30
2019-06-08T09:38:08.542Z,1.20
2019-06-08T09:39:12.357Z,1.40
2019-06-08T09:40:06.438Z,1.10
2019-06-08T09:41:08.772Z,1.10
2019-06-08T09:42:08.784Z,1.00
2019-06-08T09:43:12.337Z,1.00
2019-06-08T09:44:10.611Z,0.90
2019-06-08T09:45:09.028Z,1.10
2019-06-08T09:46:09.112Z,1.20
2019-06-08T09:47:12.394Z,1.20
2019-06-08T09:48:09.315Z,1.20
2019-06-08T09:49:09.325Z,1.10
2019-06-08T09:50:09.232Z,1.20
2019-06-08T09:51:09.373Z,1.30
2019-06-08T09:52:08.642Z,1.20
2019-06-08T09:53:23.110Z,1.20
2019-06-08T09:54:11.838Z,1.20
2019-06-08T09:55:09.114Z,1.00
2019-06-08T09:56:09.572Z,1.20
2019-06-08T09:57:08.807Z,1.30
2019-06-08T09:58:11.497Z,1.30
2019-06-08T09:59:10.422Z,1.00
2019-06-08T10:00:17.262Z,1.10
2019-06-08T10:01:09.110Z,1.30
2019-06-08T10:02:12.454Z,1.20
2019-06-08T10:03:09.280Z,1.30
2019-06-08T10:04:09.216Z,1.30
2019-06-08T10:05:06.755Z,1.10
2019-06-08T10:06:10.893Z,1.10
2019-06-08T10:07:08.864Z,1.40
2019-06-08T10:08:09.289Z,1.20
2019-06-08T10:09:08.824Z,1.00
2019-06-08T10:10:09.623Z,1.10
2019-06-08T10:11:09.381Z,1.20
2019-06-08T10:12:09.707Z,1.30
2019-06-08T10:13:09.474Z,1.30
2019-06-08T10:14:11.638Z,1.20
2019-06-08T10:15:08.146Z,1.30
2019-06-08T10:16:10.064Z,1.40
2019-06-08T10:17:08.966Z,1.10
2019-06-08T10:18:08.255Z,1.10
2019-06-08T10:19:10.126Z,1.10
2019-06-08T10:20:09.797Z,1.30
2019-06-08T10:21:09.451Z,1.10
2019-06-08T10:22:08.590Z,1.10
2019-06-08T10:23:26.875Z,1.40
2019-06-08T10:24:09.432Z,1.20
2019-06-08T10:25:10.783Z,1.10
2019-06-08T10:26:07.078Z,1.20
2019-06-08T10:27:08.590Z,1.10
2019-06-08T10:28:13.218Z,1.20
2019-06-08T10:29:09.916Z,1.00
2019-06-08T10:30:09.881Z,1.20
2019-06-08T10:31:07.165Z,1.10
2019-06-08T10:32:08.850Z,1.30
2019-06-08T10:33:09.853Z,1.20
2019-06-08T10:34:10.887Z,1.20
2019-06-08T10:35:10.121Z,1.20
2019-06-08T10:36:12.361Z,1.40
2019-06-08T10:37:12.725Z,1.30
2019-06-08T10:38:11.630Z,1.10
2019-06-08T10:39:11.372Z,1.60
2019-06-08T10:40:07.807Z,1.20
2019-06-08T10:41:16.130Z,1.10
2019-06-08T10:42:10.161Z,1.10
2019-06-08T10:43:09.504Z,1.30
2019-06-08T10:44:11.200Z,1.40
2019-06-08T10:45:10.409Z,1.20
2019-06-08T10:46:14.715Z,1.10
2019-06-08T10:47:10.009Z,1.20
2019-06-08T10:48:07.409Z,1.10
2019-06-08T10:49:13.152Z,1.20
2019-06-08T10:50:11.190Z,1.00
2019-06-08T10:51:10.706Z,1.20
2019-06-08T10:52:11.405Z,1.40
2019-06-08T10:53:10.460Z,1.30
2019-06-08T10:54:10.348Z,1.10
2019-06-08T10:55:10.366Z,1.40
2019-06-08T10:56:10.317Z,1.10
2019-06-08T10:57:07.832Z,1.10
2019-06-08T10:58:10.927Z,1.10
2019-06-08T10:59:10.454Z,1.20
2019-06-08T11:00:17.998Z,1.30
2019-06-08T11:01:12.118Z,1.20
2019-06-08T11:02:12.483Z,1.10
2019-06-08T11:03:10.174Z,1.10
2019-06-08T11:04:09.266Z,1.30
2019-06-08T11:05:12.526Z,1.30
2019-06-08T11:06:12.817Z,1.20
2019-06-08T11:07:13.185Z,1.20
2019-06-08T11:08:12.960Z,1.10
2019-06-08T11:09:12.726Z,1.20
2019-06-08T11:10:11.692Z,1.10
2019-06-08T11:11:09.847Z,1.20
2019-06-08T11:12:14.332Z,1.30
2019-06-08T11:13:13.265Z,1.40
2019-06-08T11:14:12.411Z,1.30
2019-06-08T11:15:11.578Z,1.20
2019-06-08T11:16:12.543Z,1.10
2019-06-08T11:17:09.956Z,1.30
2019-06-08T11:18:11.829Z,1.40
2019-06-08T11:19:12.904Z,1.20
2019-06-08T11:20:13.101Z,1.40
2019-06-08T11:21:12.241Z,1.50
2019-06-08T11:22:12.864Z,1.30
2019-06-08T11:23:12.278Z,1.10
2019-06-08T11:24:23.039Z,1.10
2019-06-08T11:25:15.164Z,1.10
2019-06-08T11:26:17.524Z,1.30
2019-06-08T11:27:11.163Z,1.30
2019-06-08T11:28:13.789Z,1.30
2019-06-08T11:29:11.781Z,1.30
2019-06-08T11:30:14.224Z,1.10
2019-06-08T11:31:13.241Z,1.30
2019-06-08T11:32:10.974Z,1.20
2019-06-08T11:33:09.438Z,1.20
2019-06-08T11:34:08.660Z,1.20
2019-06-08T11:35:10.741Z,1.40
2019-06-08T11:36:13.581Z,1.30
2019-06-08T11:37:11.899Z,1.40
2019-06-08T11:38:10.972Z,1.40
2019-06-08T11:39:10.804Z,1.40
2019-06-08T11:40:11.874Z,1.20
2019-06-08T11:41:12.193Z,1.20
2019-06-08T11:42:10.978Z,1.30
2019-06-08T11:43:08.646Z,1.20
2019-06-08T11:44:12.439Z,1.40
2019-06-08T11:45:11.041Z,1.40
2019-06-08T11:46:08.454Z,1.40
2019-06-08T11:47:12.226Z,1.30
2019-06-08T11:48:08.765Z,1.30
2019-06-08T11:49:12.886Z,1.30
2019-06-08T11:50:11.693Z,1.20
2019-06-08T11:51:10.627Z,1.40
2019-06-08T11:52:09.102Z,1.50
2019-06-08T11:53:12.330Z,1.10
2019-06-08T11:54:25.241Z,1.30
2019-06-08T11:55:11.298Z,1.50
2019-06-08T11:56:10.019Z,1.40
2019-06-08T11:57:11.652Z,1.40
2019-06-08T11:58:10.456Z,1.40
2019-06-08T11:59:11.552Z,1.30
2019-06-08T12:00:15.076Z,1.30
2019-06-08T12:01:11.863Z,1.40
2019-06-08T12:02:12.039Z,1.30
2019-06-08T12:03:10.436Z,1.50
2019-06-08T12:04:09.846Z,1.30
2019-06-08T12:05:11.117Z,1.50
2019-06-08T12:06:11.113Z,1.40
2019-06-08T12:07:09.558Z,1.30
2019-06-08T12:08:08.688Z,1.30
2019-06-08T12:09:09.528Z,1.30
2019-06-08T12:10:09.649Z,1.30
2019-06-08T12:11:14.865Z,1.20
2019-06-08T12:12:12.312Z,1.50
2019-06-08T12:13:09.747Z,1.50
2019-06-08T12:14:10.811Z,1.50
2019-06-08T12:15:11.579Z,1.30
2019-06-08T12:16:14.939Z,1.30
2019-06-08T12:17:12.427Z,1.30
2019-06-08T12:18:10.984Z,1.30
2019-06-08T12:19:12.025Z,1.40
2019-06-08T12:20:13.973Z,1.40
2019-06-08T12:21:11.102Z,1.30
2019-06-08T12:22:11.496Z,1.20
2019-06-08T12:23:10.021Z,1.10
2019-06-08T12:24:10.277Z,1.40
2019-06-08T12:25:10.323Z,1.30
2019-06-08T12:26:10.120Z,1.20
2019-06-08T12:27:21.787Z,1.30
2019-06-08T12:28:09.036Z,1.50
2019-06-08T12:29:11.544Z,1.30
2019-06-08T12:30:17.405Z,1.40
2019-06-08T12:31:13.213Z,1.10
2019-06-08T12:32:10.738Z,1.50
2019-06-08T12:33:09.880Z,1.20
2019-06-08T12:34:09.271Z,1.30
2019-06-08T12:35:10.862Z,1.40
2019-06-08T12:36:13.577Z,1.30
2019-06-08T12:37:14.673Z,1.20
2019-06-08T12:38:09.983Z,1.20
2019-06-08T12:39:10.110Z,1.60
2019-06-08T12:40:11.490Z,1.30
2019-06-08T12:41:11.076Z,1.20
2019-06-08T12:42:15.569Z,1.10
2019-06-08T12:43:11.297Z,1.50
2019-06-08T12:44:10.421Z,1.20
2019-06-08T12:45:09.467Z,1.10
2019-06-08T12:46:11.122Z,1.60
2019-06-08T12:47:13.334Z,1.30
2019-06-08T12:48:14.598Z,1.20
2019-06-08T12:49:11.245Z,1.50
2019-06-08T12:50:13.070Z,1.30
2019-06-08T12:51:11.542Z,1.20
2019-06-08T12:52:10.414Z,1.20
2019-06-08T12:53:14.402Z,1.20
2019-06-08T12:54:12.355Z,1.30
2019-06-08T12:55:15.917Z,1.40
2019-06-08T12:56:11.738Z,1.30
2019-06-08T12:57:13.382Z,1.20
2019-06-08T12:58:11.248Z,1.20
2019-06-08T12:59:13.011Z,1.10
2019-06-08T13:00:10.269Z,1.40
2019-06-08T13:01:11.006Z,1.40
2019-06-08T13:02:12.929Z,1.40
2019-06-08T13:03:10.138Z,1.10
2019-06-08T13:04:09.675Z,1.30
2019-06-08T13:05:13.319Z,1.30
2019-06-08T13:06:11.239Z,1.30
2019-06-08T13:07:10.481Z,1.40
2019-06-08T13:08:10.554Z,1.10
2019-06-08T13:09:11.606Z,1.70
2019-06-08T13:10:10.955Z,1.20
2019-06-08T13:11:11.215Z,1.40
2019-06-08T13:12:11.337Z,1.20
2019-06-08T13:13:11.122Z,1.40
2019-06-08T13:14:11.305Z,1.20
2019-06-08T13:15:11.266Z,1.30
2019-06-08T13:16:10.522Z,1.30
2019-06-08T13:17:11.270Z,1.30
2019-06-08T13:18:11.524Z,1.40
2019-06-08T13:19:12.173Z,1.40
2019-06-08T13:20:10.596Z,1.40